createdAt,value
2023-02-19T00:01:17.944Z,92.64
2023-02-19T00:03:49.780Z,92.25
2023-02-19T00:06:16.640Z,92.41
2023-02-19T00:08:43.457Z,92.60
2023-02-19T00:11:18.204Z,92.42
2023-02-19T00:13:47.504Z,92.69
2023-02-19T00:16:16.500Z,92.07
2023-02-19T00:18:44.191Z,92.12
2023-02-19T00:21:11.627Z,92.19
2023-02-19T00:23:38.701Z,92.42
2023-02-19T00:26:17.660Z,92.19
2023-02-19T00:28:47.862Z,92.04
2023-02-19T00:31:18.947Z,92.15
2023-02-19T00:33:46.857Z,91.87
2023-02-19T00:36:14.299Z,91.88
2023-02-19T00:38:42.410Z,91.91
2023-02-19T00:41:22.152Z,91.77
2023-02-19T00:43:48.994Z,91.78
2023-02-19T00:46:22.128Z,91.59
2023-02-19T00:48:49.378Z,92.15
2023-02-19T00:51:16.451Z,92.05
2023-02-19T00:53:43.511Z,91.85
2023-02-19T00:56:11.289Z,92.16
2023-02-19T00:58:38.764Z,91.75
2023-02-19T01:01:07.270Z,92.17
2023-02-19T01:03:35.652Z,92.10
2023-02-19T01:06:04.317Z,92.24
2023-02-19T01:08:32.206Z,92.01
2023-02-19T01:11:02.168Z,92.38
2023-02-19T01:13:29.691Z,92.11
2023-02-19T01:16:07.302Z,92.12
2023-02-19T01:18:34.063Z,91.56
2023-02-19T01:21:05.760Z,91.80
2023-02-19T01:23:32.855Z,91.71
2023-02-19T01:25:59.585Z,91.82
2023-02-19T01:28:26.338Z,91.78
2023-02-19T01:30:53.251Z,91.89
2023-02-19T01:33:20.003Z,91.98
2023-02-19T01:35:46.710Z,91.71
2023-02-19T01:38:13.693Z,92.11
2023-02-19T01:40:40.418Z,91.79
2023-02-19T01:43:16.099Z,91.80
2023-02-19T01:45:44.783Z,91.75
2023-02-19T01:48:29.188Z,91.51
2023-02-19T01:51:17.091Z,91.16
2023-02-19T01:53:48.100Z,91.09
2023-02-19T01:56:16.712Z,90.42
2023-02-19T01:58:44.107Z,90.21
2023-02-19T02:01:11.677Z,90.00
2023-02-19T02:03:40.890Z,90.32
2023-02-19T02:06:22.439Z,90.32
2023-02-19T02:09:10.519Z,90.47
2023-02-19T02:11:38.902Z,90.44
2023-02-19T02:14:05.755Z,90.58
2023-02-19T02:16:41.735Z,90.66
2023-02-19T02:19:29.666Z,90.38
2023-02-19T02:22:13.957Z,90.44
2023-02-19T02:25:17.878Z,90.21
2023-02-19T02:27:47.529Z,90.76
2023-02-19T02:30:18.149Z,90.13
2023-02-19T02:33:08.228Z,90.33
2023-02-19T02:35:58.599Z,90.51
2023-02-19T02:38:29.351Z,91.36
2023-02-19T02:40:57.046Z,91.48
2023-02-19T02:43:24.890Z,91.48
2023-02-19T02:45:52.136Z,91.11
2023-02-19T02:48:26.575Z,91.63
2023-02-19T02:51:04.632Z,91.58
2023-02-19T02:54:02.178Z,91.39
2023-02-19T02:56:29.384Z,91.46
2023-02-19T02:59:01.072Z,91.44
2023-02-19T03:01:52.084Z,91.05
2023-02-19T03:04:26.712Z,91.37
2023-02-19T03:06:54.752Z,91.30
2023-02-19T03:09:31.962Z,91.32
2023-02-19T03:12:21.758Z,91.38
2023-02-19T03:15:10.742Z,91.38
2023-02-19T03:18:19.401Z,91.04
2023-02-19T03:20:50.306Z,90.92
2023-02-19T03:23:18.522Z,91.06
2023-02-19T03:26:03.505Z,91.07
2023-02-19T03:28:59.599Z,90.94
2023-02-19T03:31:29.220Z,90.82
2023-02-19T03:34:02.203Z,91.01
2023-02-19T03:36:38.317Z,90.90
2023-02-19T03:39:07.535Z,90.59
2023-02-19T03:42:04.891Z,90.48
2023-02-19T03:44:35.566Z,90.55
2023-02-19T03:47:19.081Z,90.30
2023-02-19T03:49:55.963Z,90.06
2023-02-19T03:53:03.549Z,89.42
2023-02-19T03:55:39.457Z,89.74
2023-02-19T03:58:24.875Z,89.38
2023-02-19T04:00:57.416Z,89.41
2023-02-19T04:03:26.818Z,89.33
2023-02-19T04:06:00.876Z,89.54
2023-02-19T04:08:28.160Z,89.21
2023-02-19T04:11:00.689Z,89.54
2023-02-19T04:13:34.685Z,89.34
2023-02-19T04:16:07.126Z,89.00
2023-02-19T04:18:37.233Z,89.06
2023-02-19T04:21:04.770Z,89.04
2023-02-19T04:23:35.837Z,88.79
2023-02-19T04:26:03.361Z,88.66
2023-02-19T04:28:30.318Z,88.67
2023-02-19T04:30:57.062Z,88.13
2023-02-19T04:33:23.881Z,88.04
2023-02-19T04:35:50.604Z,87.88
2023-02-19T04:38:17.289Z,88.00
2023-02-19T04:40:44.132Z,87.48
2023-02-19T04:43:11.337Z,87.68
2023-02-19T04:45:38.791Z,88.03
2023-02-19T04:48:06.027Z,88.08
2023-02-19T04:50:32.701Z,88.06
2023-02-19T04:52:59.425Z,88.76
2023-02-19T04:55:26.331Z,88.82
2023-02-19T04:57:53.201Z,89.24
2023-02-19T05:00:20.059Z,89.22
2023-02-19T05:02:46.913Z,89.39
2023-02-19T05:05:13.740Z,89.00
2023-02-19T05:07:40.558Z,88.63
2023-02-19T05:10:07.702Z,88.71
2023-02-19T05:12:34.716Z,88.31
2023-02-19T05:15:01.553Z,88.22
2023-02-19T05:17:28.491Z,88.20
2023-02-19T05:19:55.214Z,88.37
2023-02-19T05:22:21.888Z,87.96
2023-02-19T05:24:48.961Z,88.28
2023-02-19T05:27:15.667Z,88.35
2023-02-19T05:29:42.399Z,88.64
2023-02-19T05:32:09.368Z,88.76
2023-02-19T05:34:36.079Z,89.17
2023-02-19T05:37:02.845Z,89.29
2023-02-19T05:39:29.726Z,89.52
2023-02-19T05:41:56.515Z,89.51
2023-02-19T05:44:23.325Z,90.16
2023-02-19T05:46:50.402Z,89.59
2023-02-19T05:49:17.365Z,90.51
2023-02-19T05:51:44.375Z,90.01
2023-02-19T05:54:11.209Z,89.88
2023-02-19T05:56:40.105Z,90.18
2023-02-19T05:59:21.426Z,89.73
2023-02-19T06:01:49.941Z,89.59
2023-02-19T06:04:19.134Z,89.46
2023-02-19T06:06:47.196Z,89.35
2023-02-19T06:09:14.086Z,89.08
2023-02-19T06:11:41.288Z,89.09
2023-02-19T06:14:08.176Z,88.91
2023-02-19T06:16:35.241Z,88.84
2023-02-19T06:19:03.426Z,88.73
2023-02-19T06:21:30.180Z,88.47
2023-02-19T06:23:56.989Z,88.30
2023-02-19T06:26:25.335Z,88.30
2023-02-19T06:28:54.073Z,88.36
2023-02-19T06:31:22.376Z,88.33
2023-02-19T06:33:50.732Z,88.61
2023-02-19T06:36:19.655Z,88.43
2023-02-19T06:38:46.447Z,88.40
2023-02-19T06:41:13.885Z,88.73
2023-02-19T06:43:41.091Z,88.40
2023-02-19T06:46:08.593Z,88.59
2023-02-19T06:48:35.853Z,88.44
2023-02-19T06:51:03.310Z,88.84
2023-02-19T06:53:30.390Z,88.42
2023-02-19T06:55:58.146Z,88.29
2023-02-19T06:58:25.245Z,88.30
2023-02-19T07:01:13.998Z,89.22
2023-02-19T07:03:43.635Z,88.70
2023-02-19T07:06:10.423Z,88.72
2023-02-19T07:08:37.074Z,89.42
2023-02-19T07:11:04.224Z,89.02
2023-02-19T07:13:31.055Z,89.39
2023-02-19T07:16:08.005Z,89.44
2023-02-19T07:18:35.050Z,90.43
2023-02-19T07:21:10.977Z,90.90
2023-02-19T07:23:38.376Z,90.85
2023-02-19T07:26:05.559Z,90.73
2023-02-19T07:28:32.285Z,90.62
2023-02-19T07:31:03.414Z,91.55
2023-02-19T07:33:30.860Z,91.23
2023-02-19T07:35:57.694Z,91.89
2023-02-19T07:38:25.239Z,91.78
2023-02-19T07:40:52.776Z,92.09
2023-02-19T07:43:19.638Z,91.66
2023-02-19T07:45:46.428Z,91.53
2023-02-19T07:48:13.424Z,91.66
2023-02-19T07:50:40.207Z,91.39
2023-02-19T07:53:06.790Z,91.35
2023-02-19T07:55:34.035Z,91.15
2023-02-19T07:58:01.107Z,91.53
2023-02-19T08:00:28.031Z,91.20
2023-02-19T08:03:00.770Z,91.19
2023-02-19T08:05:30.663Z,91.05
2023-02-19T08:07:58.837Z,91.02
2023-02-19T08:10:44.897Z,91.38
2023-02-19T08:13:19.606Z,90.81
2023-02-19T08:15:46.993Z,91.29
2023-02-19T08:18:14.724Z,91.18
2023-02-19T08:20:41.377Z,91.42
2023-02-19T08:23:08.991Z,91.30
2023-02-19T08:25:36.137Z,91.02
2023-02-19T08:28:02.982Z,91.05
2023-02-19T08:30:30.995Z,91.45
2023-02-19T08:33:01.312Z,91.52
2023-02-19T08:35:28.967Z,91.15
2023-02-19T08:37:57.441Z,91.71
2023-02-19T08:40:25.301Z,91.40
2023-02-19T08:42:52.176Z,91.76
2023-02-19T08:45:19.243Z,91.34
2023-02-19T08:47:46.705Z,91.56
2023-02-19T08:50:13.450Z,90.84
2023-02-19T08:52:42.582Z,91.38
2023-02-19T08:55:09.408Z,90.91
2023-02-19T08:57:37.732Z,90.10
2023-02-19T09:00:06.540Z,90.53
2023-02-19T09:02:33.538Z,90.75
2023-02-19T09:05:00.289Z,90.84
2023-02-19T09:07:27.648Z,91.15
2023-02-19T09:09:54.644Z,90.79
2023-02-19T09:12:21.466Z,90.42
2023-02-19T09:14:48.372Z,90.71
2023-02-19T09:17:15.007Z,90.65
2023-02-19T09:19:41.951Z,90.42
2023-02-19T09:22:09.283Z,89.82
2023-02-19T09:24:36.172Z,90.26
2023-02-19T09:27:02.835Z,89.77
2023-02-19T09:29:29.771Z,89.57
2023-02-19T09:32:00.463Z,89.35
2023-02-19T09:34:28.403Z,89.52
2023-02-19T09:36:55.664Z,89.37
2023-02-19T09:39:22.505Z,89.27
2023-02-19T09:41:52.284Z,89.14
2023-02-19T09:44:34.446Z,88.97
2023-02-19T09:47:02.222Z,88.34
2023-02-19T09:49:33.854Z,88.44
2023-02-19T09:52:12.440Z,88.62
2023-02-19T09:54:40.020Z,88.03
2023-02-19T09:57:14.706Z,88.40
2023-02-19T09:59:47.969Z,88.14
2023-02-19T10:02:18.762Z,87.83
2023-02-19T10:04:46.976Z,88.10
2023-02-19T10:07:26.114Z,88.15
2023-02-19T10:09:53.855Z,88.04
2023-02-19T10:12:26.016Z,88.22
2023-02-19T10:14:56.497Z,87.16
2023-02-19T10:17:25.658Z,87.08
2023-02-19T10:19:52.985Z,87.45
2023-02-19T10:22:20.519Z,87.19
2023-02-19T10:24:51.835Z,86.85
2023-02-19T10:27:18.977Z,87.49
2023-02-19T10:29:47.412Z,87.56
2023-02-19T10:32:14.273Z,87.24
2023-02-19T10:34:40.963Z,87.57
2023-02-19T10:37:12.458Z,87.50
2023-02-19T10:39:43.257Z,87.38
2023-02-19T10:42:23.329Z,87.23
2023-02-19T10:44:54.359Z,86.45
2023-02-19T10:47:23.529Z,86.39
2023-02-19T10:49:51.379Z,86.06
2023-02-19T10:52:22.579Z,84.65
2023-02-19T10:54:56.711Z,84.71
2023-02-19T10:57:30.662Z,85.18
2023-02-19T11:00:19.786Z,86.03
2023-02-19T11:02:47.105Z,87.26
2023-02-19T11:05:23.465Z,88.15
2023-02-19T11:07:53.791Z,89.35
2023-02-19T11:10:29.036Z,89.25
2023-02-19T11:12:59.633Z,89.84
2023-02-19T11:15:33.625Z,89.97
2023-02-19T11:18:12.961Z,90.21
2023-02-19T11:20:48.918Z,89.96
2023-02-19T11:23:20.089Z,90.52
2023-02-19T11:25:51.276Z,90.83
2023-02-19T11:28:37.972Z,89.91
2023-02-19T11:31:23.189Z,90.06
2023-02-19T11:33:59.475Z,89.36
2023-02-19T11:36:30.900Z,89.63
2023-02-19T11:39:02.052Z,89.42
2023-02-19T11:52:10.096Z,90.31
2023-02-19T12:10:17.894Z,90.10
2023-02-19T12:13:06.595Z,90.86
2023-02-19T12:16:01.379Z,91.20
2023-02-19T12:18:40.355Z,89.75
2023-02-19T12:21:22.501Z,90.19
2023-02-19T12:24:01.568Z,90.25
2023-02-19T12:26:29.560Z,90.31
2023-02-19T12:29:28.341Z,90.29
2023-02-19T12:32:23.497Z,90.68
2023-02-19T12:35:12.696Z,89.65
2023-02-19T12:37:58.226Z,89.96
2023-02-19T12:40:43.426Z,89.65
2023-02-19T12:43:20.642Z,90.05
2023-02-19T12:46:13.910Z,89.05
2023-02-19T12:48:48.356Z,89.31
2023-02-19T12:51:23.511Z,89.62
2023-02-19T12:53:56.331Z,89.15
2023-02-19T12:56:37.135Z,89.59
2023-02-19T13:29:29.938Z,89.61
2023-02-19T14:15:44.599Z,84.95
2023-02-19T14:18:42.746Z,85.76
2023-02-19T14:21:28.055Z,85.98
2023-02-19T14:23:58.400Z,86.10
2023-02-19T14:26:26.689Z,86.51
2023-02-19T14:28:53.996Z,85.49
2023-02-19T14:31:29.277Z,85.12
2023-02-19T14:34:00.525Z,84.92
2023-02-19T14:36:30.074Z,84.86
2023-02-19T14:38:59.206Z,85.35
2023-02-19T14:41:27.234Z,85.74
2023-02-19T14:43:56.950Z,84.20
2023-02-19T14:46:32.183Z,84.62
2023-02-19T14:49:05.553Z,84.48
2023-02-19T14:51:40.813Z,84.89
2023-02-19T14:54:15.787Z,83.92
2023-02-19T14:56:45.407Z,84.11
2023-02-19T14:59:11.967Z,84.80
2023-02-19T15:01:39.077Z,82.93
2023-02-19T15:04:06.521Z,82.66
2023-02-19T15:06:35.180Z,82.35
2023-02-19T15:09:07.100Z,81.51
2023-02-19T15:11:35.318Z,81.51
2023-02-19T15:14:04.549Z,81.38
2023-02-19T15:16:32.712Z,81.05
2023-02-19T15:19:00.219Z,81.95
2023-02-19T15:21:32.279Z,82.02
2023-02-19T15:24:04.332Z,82.02
2023-02-19T15:26:42.299Z,81.67
2023-02-19T15:29:17.065Z,81.25
2023-02-19T15:31:52.322Z,80.50
2023-02-19T15:34:20.516Z,80.45
2023-02-19T15:36:48.256Z,80.65
2023-02-19T15:39:26.208Z,81.12
2023-02-19T15:42:14.336Z,81.10
2023-02-19T15:45:18.766Z,81.56
2023-02-19T15:47:53.912Z,82.28
2023-02-19T15:50:31.952Z,81.99
2023-02-19T15:52:59.601Z,81.32
2023-02-19T15:55:51.977Z,81.78
2023-02-19T15:58:56.412Z,81.52
2023-02-19T16:01:31.118Z,82.03
2023-02-19T16:03:58.499Z,81.77
2023-02-19T16:06:26.517Z,81.87
2023-02-19T16:09:02.381Z,81.72
2023-02-19T16:11:53.201Z,81.48
2023-02-19T16:14:30.663Z,81.81
2023-02-19T16:17:11.449Z,80.79
2023-02-19T16:19:47.996Z,81.50
2023-02-19T16:22:18.588Z,81.21
2023-02-19T16:24:47.561Z,81.33
2023-02-19T16:27:26.097Z,81.26
2023-02-19T16:29:53.260Z,81.34
2023-02-19T16:32:20.090Z,81.53
2023-02-19T16:34:48.440Z,81.54
2023-02-19T16:37:35.134Z,81.79
2023-02-19T16:40:11.234Z,81.69
2023-02-19T16:42:50.656Z,82.39
2023-02-19T16:45:18.012Z,81.95
2023-02-19T16:47:48.205Z,81.86
2023-02-19T16:50:47.670Z,82.47
2023-02-19T16:53:24.801Z,82.97
2023-02-19T16:55:52.129Z,83.18
2023-02-19T16:58:18.827Z,82.49
2023-02-19T17:00:45.587Z,82.47
2023-02-19T17:03:15.360Z,83.46
2023-02-19T17:05:42.533Z,82.63
2023-02-19T17:08:46.318Z,82.51
2023-02-19T17:11:15.475Z,82.54
2023-02-19T17:13:42.931Z,82.73
2023-02-19T17:16:17.407Z,82.47
2023-02-19T17:18:44.195Z,82.87
2023-02-19T17:21:15.956Z,83.23
2023-02-19T17:23:42.759Z,82.33
2023-02-19T17:26:21.690Z,82.33
2023-02-19T17:28:48.883Z,82.84
2023-02-19T17:31:16.258Z,81.68
2023-02-19T17:33:43.711Z,81.82
2023-02-19T17:36:38.135Z,82.17
2023-02-19T17:39:07.147Z,81.60
2023-02-19T17:41:33.801Z,81.57
2023-02-19T17:44:00.550Z,82.10
2023-02-19T17:46:27.752Z,81.13
2023-02-19T17:48:55.206Z,81.74
2023-02-19T17:51:22.388Z,82.79
2023-02-19T17:53:49.353Z,83.43
2023-02-19T17:56:20.746Z,83.28
2023-02-19T17:58:47.766Z,83.65
2023-02-19T18:01:15.131Z,83.90
2023-02-19T18:03:42.910Z,84.37
2023-02-19T18:06:09.734Z,83.69
2023-02-19T18:08:36.893Z,83.49
2023-02-19T18:11:03.899Z,84.28
2023-02-19T18:13:30.689Z,84.11
2023-02-19T18:15:57.526Z,84.09
2023-02-19T18:18:24.154Z,83.97
2023-02-19T18:20:50.956Z,83.32
2023-02-19T18:23:17.705Z,83.31
2023-02-19T18:26:19.036Z,83.46
2023-02-19T18:28:45.854Z,83.95
2023-02-19T18:31:12.730Z,83.76
2023-02-19T18:33:39.696Z,83.87
2023-02-19T18:36:10.565Z,84.56
2023-02-19T18:38:37.423Z,84.99
2023-02-19T18:41:04.268Z,84.21
2023-02-19T18:43:31.211Z,85.02
2023-02-19T18:45:58.027Z,85.26
2023-02-19T18:48:24.858Z,85.31
2023-02-19T18:50:51.663Z,85.09
2023-02-19T18:53:18.448Z,84.82
2023-02-19T18:55:45.279Z,85.14
2023-02-19T18:58:12.051Z,85.73
2023-02-19T19:00:38.736Z,85.59
2023-02-19T19:03:06.510Z,85.52
2023-02-19T19:05:33.450Z,86.05
2023-02-19T19:08:01.847Z,85.81
2023-02-19T19:10:29.923Z,86.49
2023-02-19T19:12:57.594Z,86.14
2023-02-19T19:15:24.747Z,86.02
2023-02-19T19:17:52.295Z,86.28
2023-02-19T19:20:20.527Z,85.84
2023-02-19T19:22:51.711Z,85.88
2023-02-19T19:25:19.499Z,86.47
2023-02-19T19:27:46.887Z,86.47
2023-02-19T19:30:14.367Z,86.03
2023-02-19T19:32:41.965Z,86.13
2023-02-19T19:35:09.556Z,86.94
2023-02-19T19:37:36.298Z,86.47
2023-02-19T19:40:04.061Z,86.85
2023-02-19T19:42:30.834Z,87.31
2023-02-19T19:44:58.127Z,87.58
2023-02-19T19:47:25.406Z,87.73
2023-02-19T19:49:52.453Z,87.78
2023-02-19T19:52:19.191Z,87.38
2023-02-19T19:54:45.830Z,88.23
2023-02-19T19:57:13.138Z,88.34
2023-02-19T19:59:39.844Z,88.18
2023-02-19T20:02:07.729Z,88.11
2023-02-19T20:04:34.448Z,88.13
2023-02-19T20:07:02.362Z,87.67
2023-02-19T20:09:29.564Z,88.28
2023-02-19T20:11:56.594Z,87.52
2023-02-19T20:14:24.770Z,87.68
2023-02-19T20:16:52.618Z,87.63
2023-02-19T20:19:20.231Z,87.58
2023-02-19T20:21:50.839Z,88.57
2023-02-19T20:24:24.362Z,87.73
2023-02-19T20:26:53.396Z,88.01
2023-02-19T20:29:20.378Z,88.27
2023-02-19T20:31:50.883Z,88.42
2023-02-19T20:34:18.542Z,89.04
2023-02-19T20:36:46.806Z,88.58
2023-02-19T20:39:16.420Z,88.68
2023-02-19T20:41:48.837Z,88.14
2023-02-19T20:44:19.454Z,88.43
2023-02-19T20:46:48.940Z,88.99
2023-02-19T20:49:17.598Z,88.09
2023-02-19T20:51:50.232Z,88.96
2023-02-19T20:54:20.780Z,88.56
2023-02-19T20:56:54.177Z,88.52
2023-02-19T20:59:24.337Z,88.77
2023-02-19T21:01:51.864Z,88.83
2023-02-19T21:04:19.118Z,88.47
2023-02-19T21:06:46.100Z,88.45
2023-02-19T21:09:13.029Z,88.65
2023-02-19T21:11:39.813Z,88.26
2023-02-19T21:14:06.775Z,89.31
2023-02-19T21:16:33.766Z,88.93
2023-02-19T21:19:00.909Z,89.31
2023-02-19T21:21:30.028Z,89.32
2023-02-19T21:23:58.136Z,88.97
2023-02-19T21:26:25.699Z,89.23
2023-02-19T21:28:52.672Z,88.98
2023-02-19T21:31:21.664Z,89.26
2023-02-19T21:33:49.375Z,88.86
2023-02-19T21:36:18.491Z,88.72
2023-02-19T21:38:45.256Z,89.55
2023-02-19T21:41:12.000Z,88.98
2023-02-19T21:43:39.939Z,89.45
2023-02-19T21:46:06.711Z,88.88
2023-02-19T21:48:33.706Z,89.59
2023-02-19T21:51:00.911Z,88.63
2023-02-19T21:53:27.779Z,88.58
2023-02-19T21:55:58.808Z,88.48
2023-02-19T21:58:26.405Z,88.97
2023-02-19T22:00:58.731Z,88.02
2023-02-19T22:03:26.667Z,88.40
2023-02-19T22:05:57.770Z,87.59
2023-02-19T22:08:26.512Z,87.95
2023-02-19T22:11:04.932Z,88.35
2023-02-19T22:13:32.272Z,87.58
2023-02-19T22:16:00.399Z,87.87
2023-02-19T22:18:27.583Z,88.02
2023-02-19T22:20:54.288Z,87.94
2023-02-19T22:23:21.062Z,87.12
2023-02-19T22:25:47.665Z,88.28
2023-02-19T22:28:14.370Z,87.99
2023-02-19T22:30:42.819Z,87.30
2023-02-19T22:33:09.923Z,87.90
2023-02-19T22:35:36.776Z,88.21
2023-02-19T22:38:03.536Z,87.16
2023-02-19T22:40:30.233Z,87.45
2023-02-19T22:42:56.930Z,87.75
2023-02-19T22:45:25.137Z,87.24
2023-02-19T22:47:55.538Z,87.51
2023-02-19T22:50:22.873Z,86.40
2023-02-19T22:52:50.257Z,85.95
2023-02-19T22:55:17.311Z,85.95
2023-02-19T22:57:43.949Z,85.73
2023-02-19T23:00:17.463Z,85.86
2023-02-19T23:02:44.224Z,85.95
2023-02-19T23:05:10.794Z,85.39
2023-02-19T23:07:37.512Z,85.98
2023-02-19T23:10:04.371Z,85.75
2023-02-19T23:12:31.052Z,85.86
2023-02-19T23:14:57.774Z,85.78
2023-02-19T23:17:24.438Z,85.99
2023-02-19T23:19:51.077Z,85.71
2023-02-19T23:22:17.944Z,85.58
2023-02-19T23:24:44.719Z,85.22
2023-02-19T23:27:11.333Z,85.17
2023-02-19T23:29:38.119Z,85.72
2023-02-19T23:32:04.941Z,85.42
2023-02-19T23:34:31.937Z,85.61
2023-02-19T23:37:02.362Z,85.84
2023-02-19T23:39:29.220Z,85.77
2023-02-19T23:41:57.317Z,85.25
2023-02-19T23:44:25.269Z,86.03
2023-02-19T23:46:52.462Z,85.78
2023-02-19T23:49:19.389Z,85.20
2023-02-19T23:51:46.418Z,84.93
2023-02-19T23:54:13.131Z,84.82
2023-02-19T23:56:39.875Z,85.24
2023-02-19T23:59:06.638Z,84.97
